Time;durP1;ratioP1;P1;durP2;ratioP2;P2;SDS_P1;SDS_P2;PMS_P1;PMS_P2;Temp;Humidity;BMP_temperature;BMP_pressure;BME280_temperature;BME280_humidity;BME280_pressure;Samples;Min_cycle;Max_cycle;Signal;HPM_P1;HPM_P2
2022/11/30 00:00:20;;;;;;;26.60;14.20;;;1.80;78.70;;;;;;5073067;28;20025;-14
2022/11/30 00:02:48;;;;;;;27.30;14.90;;;1.80;78.80;;;;;;5073494;28;20031;-14
2022/11/30 00:05:14;;;;;;;20.67;11.38;;;1.80;78.50;;;;;;5073271;28;20020;-14
2022/11/30 00:07:43;;;;;;;31.50;15.73;;;1.90;78.00;;;;;;5073066;28;20434;-14
2022/11/30 00:10:09;;;;;;;33.83;17.65;;;1.90;78.30;;;;;;5073288;28;20029;-14
2022/11/30 00:12:35;;;;;;;38.13;20.30;;;1.90;78.70;;;;;;5071532;28;20116;-14
2022/11/30 00:15:02;;;;;;;30.15;15.60;;;1.90;78.90;;;;;;5072209;28;20406;-15
2022/11/30 00:17:28;;;;;;;32.28;18.25;;;2.00;79.20;;;;;;5073010;28;20028;-15
2022/11/30 00:19:53;;;;;;;36.80;18.83;;;2.00;79.30;;;;;;5073084;28;20069;-15
2022/11/30 00:22:19;;;;;;;36.72;18.95;;;2.00;79.20;;;;;;5072870;28;20392;-14
2022/11/30 00:24:45;;;;;;;42.55;21.95;;;2.10;79.30;;;;;;5072948;28;20431;-14
2022/11/30 00:27:11;;;;;;;40.47;22.35;;;2.20;79.30;;;;;;5072987;28;20107;-14
2022/11/30 00:29:37;;;;;;;42.15;20.75;;;2.20;79.10;;;;;;5072994;28;20024;-14
2022/11/30 00:32:03;;;;;;;35.22;17.90;;;2.30;79.00;;;;;;5072660;28;20036;-14
2022/11/30 00:34:29;;;;;;;39.08;21.10;;;2.40;78.80;;;;;;5072589;28;20031;-14
2022/11/30 00:36:55;;;;;;;40.35;20.95;;;2.40;78.70;;;;;;5072432;28;20028;-14
2022/11/30 00:39:21;;;;;;;39.97;21.65;;;2.50;78.60;;;;;;5072708;28;20020;-13
2022/11/30 00:41:48;;;;;;;41.10;21.58;;;2.50;78.40;;;;;;5072839;28;20043;-14
2022/11/30 00:44:14;;;;;;;40.53;21.80;;;2.60;78.50;;;;;;5072190;28;20080;-15
2022/11/30 00:46:40;;;;;;;40.95;19.85;;;2.60;78.40;;;;;;5072682;28;20056;-15
2022/11/30 00:49:06;;;;;;;39.38;20.83;;;2.70;78.50;;;;;;5072501;28;20909;-14
2022/11/30 00:51:32;;;;;;;38.17;20.80;;;2.70;78.60;;;;;;5072364;28;20028;-14
2022/11/30 00:53:58;;;;;;;36.58;19.92;;;2.70;78.40;;;;;;5072393;28;20048;-14
2022/11/30 00:56:24;;;;;;;43.58;20.67;;;2.80;78.40;;;;;;5072647;28;20020;-15
2022/11/30 00:58:50;;;;;;;40.40;18.20;;;2.80;78.40;;;;;;5072060;28;20108;-15
2022/11/30 01:01:16;;;;;;;33.67;17.45;;;2.90;78.50;;;;;;5071432;28;20060;-14
2022/11/30 01:03:41;;;;;;;27.25;14.38;;;2.90;78.40;;;;;;5072529;28;20381;-14
2022/11/30 01:06:09;;;;;;;27.90;14.10;;;3.00;78.20;;;;;;5072593;28;20396;-15
2022/11/30 01:08:36;;;;;;;28.55;13.65;;;3.10;78.20;;;;;;5072393;28;20020;-15
2022/11/30 01:11:10;;;;;;;29.88;14.65;;;3.10;78.10;;;;;;5072154;28;20029;-14
2022/11/30 01:13:36;;;;;;;29.42;14.60;;;3.20;78.00;;;;;;5072626;28;20074;-15
2022/11/30 01:16:08;;;;;;;24.02;12.57;;;3.20;77.90;;;;;;5071061;28;20037;-15
2022/11/30 01:18:37;;;;;;;31.38;15.60;;;3.20;77.80;;;;;;5072351;28;20021;-15
2022/11/30 01:21:08;;;;;;;27.58;14.57;;;3.20;78.00;;;;;;5072267;28;20052;-14
2022/11/30 01:23:35;;;;;;;28.98;13.95;;;3.20;78.10;;;;;;5072066;28;20032;-14
2022/11/30 01:26:01;;;;;;;32.28;16.38;;;3.30;78.00;;;;;;5072855;28;20025;-15
2022/11/30 01:28:27;;;;;;;32.40;15.23;;;3.30;78.00;;;;;;5076338;28;20033;-15
2022/11/30 01:31:01;;;;;;;28.92;13.85;;;3.30;77.70;;;;;;5075927;28;20373;-15
2022/11/30 01:33:27;;;;;;;35.42;15.70;;;3.30;77.70;;;;;;5076705;28;20356;-14
2022/11/30 01:36:09;;;;;;;29.75;14.43;;;3.30;77.90;;;;;;5074551;28;20123;-15
2022/11/30 01:38:43;;;;;;;21.88;11.05;;;3.40;77.70;;;;;;5075960;28;20089;-14
2022/11/30 01:41:12;;;;;;;25.02;12.98;;;3.40;77.50;;;;;;5076245;28;20028;-14
2022/11/30 01:43:51;;;;;;;30.15;14.40;;;3.40;77.40;;;;;;5075415;28;20072;-14
2022/11/30 01:46:23;;;;;;;26.95;12.48;;;3.50;77.50;;;;;;5075638;28;20111;-15
2022/11/30 01:49:03;;;;;;;22.10;11.63;;;3.50;77.40;;;;;;5075605;28;20028;-15
2022/11/30 01:51:35;;;;;;;26.35;13.20;;;3.50;77.30;;;;;;5075983;28;20032;-14
2022/11/30 01:54:05;;;;;;;24.95;11.85;;;3.50;77.40;;;;;;5075801;28;20027;-15
2022/11/30 01:56:31;;;;;;;28.42;13.88;;;3.50;77.30;;;;;;5075724;28;20036;-16
2022/11/30 01:58:57;;;;;;;29.67;15.02;;;3.50;77.40;;;;;;5075145;28;20024;-14
2022/11/30 02:01:24;;;;;;;32.40;15.40;;;3.50;77.30;;;;;;5076084;28;20032;-15
2022/11/30 02:04:12;;;;;;;30.05;14.05;;;3.50;77.40;;;;;;5076336;28;20112;-15
2022/11/30 02:06:38;;;;;;;29.00;14.63;;;3.50;77.40;;;;;;5075464;28;20028;-15
2022/11/30 02:09:04;;;;;;;33.17;16.25;;;3.40;77.30;;;;;;5075069;28;20029;-14
2022/11/30 02:11:30;;;;;;;29.17;15.00;;;3.40;77.30;;;;;;5075173;28;20047;-15
2022/11/30 02:13:59;;;;;;;29.48;12.93;;;3.40;77.20;;;;;;5075315;28;20029;-14
2022/11/30 02:16:55;;;;;;;28.45;15.57;;;3.40;77.20;;;;;;5075389;28;20074;-14
2022/11/30 02:19:47;;;;;;;27.30;14.15;;;3.40;77.30;;;;;;5075444;28;20517;-14
2022/11/30 02:22:49;;;;;;;30.85;16.25;;;3.30;77.40;;;;;;5051099;28;20029;-15
2022/11/30 02:25:36;;;;;;;30.48;15.13;;;3.30;77.40;;;;;;5013027;28;20045;-14
2022/11/30 02:28:21;;;;;;;26.08;13.00;;;3.30;77.40;;;;;;5071016;28;20029;-16
2022/11/30 02:30:51;;;;;;;28.70;13.95;;;3.30;77.60;;;;;;5074883;28;20045;-15
2022/11/30 02:33:25;;;;;;;36.67;16.38;;;3.30;77.60;;;;;;5075127;28;20024;-16
2022/11/30 02:35:54;;;;;;;28.88;13.48;;;3.30;77.50;;;;;;5075070;28;20465;-15
2022/11/30 02:38:23;;;;;;;24.73;11.93;;;3.30;77.60;;;;;;5074306;28;20028;-15
2022/11/30 02:40:49;;;;;;;30.42;15.32;;;3.20;77.60;;;;;;5074492;28;20497;-14
2022/11/30 02:43:17;;;;;;;33.33;16.45;;;3.20;77.70;;;;;;5074590;28;20136;-14
2022/11/30 02:46:00;;;;;;;28.10;13.45;;;3.20;77.60;;;;;;5074803;28;20068;-16
2022/11/30 02:49:00;;;;;;;32.78;15.82;;;3.10;77.70;;;;;;5073247;28;20048;-15
2022/11/30 02:51:28;;;;;;;28.95;13.70;;;3.10;77.70;;;;;;5074502;28;20025;-15
2022/11/30 02:53:55;;;;;;;27.10;12.75;;;3.00;77.90;;;;;;5074303;28;20411;-16
2022/11/30 02:56:21;;;;;;;27.50;13.23;;;3.00;77.90;;;;;;5074444;28;20037;-14
2022/11/30 02:58:47;;;;;;;20.90;10.48;;;2.90;78.00;;;;;;5074132;28;20082;-14
2022/11/30 03:01:13;;;;;;;31.95;14.98;;;2.90;77.90;;;;;;5074574;28;20024;-14
2022/11/30 03:03:39;;;;;;;18.05;10.00;;;2.80;77.90;;;;;;5074125;28;20431;-14
2022/11/30 03:06:05;;;;;;;21.08;10.93;;;2.80;78.00;;;;;;5072910;28;20111;-15
2022/11/30 03:08:30;;;;;;;28.60;13.25;;;2.80;78.10;;;;;;5074285;28;20116;-14
2022/11/30 03:11:00;;;;;;;26.10;13.68;;;2.70;78.20;;;;;;5073788;28;20107;-14
2022/11/30 03:13:25;;;;;;;19.85;9.73;;;2.60;78.20;;;;;;5074507;28;20029;-15
2022/11/30 03:15:51;;;;;;;27.15;13.50;;;2.60;78.30;;;;;;5074330;28;20025;-15
2022/11/30 03:18:17;;;;;;;24.50;12.10;;;2.50;78.20;;;;;;5073821;28;20094;-15
2022/11/30 03:20:43;;;;;;;31.35;13.45;;;2.50;78.40;;;;;;5074111;28;20059;-15
2022/11/30 03:23:09;;;;;;;27.88;14.50;;;2.50;78.50;;;;;;5073530;28;20024;-16
2022/11/30 03:25:35;;;;;;;34.28;15.88;;;2.40;78.50;;;;;;5073972;28;20037;-14
2022/11/30 03:28:02;;;;;;;31.20;15.48;;;2.40;78.50;;;;;;5073676;28;20441;-15
2022/11/30 03:30:28;;;;;;;31.02;14.77;;;2.40;78.50;;;;;;5074026;28;20048;-15
2022/11/30 03:32:53;;;;;;;33.92;15.25;;;2.30;78.70;;;;;;5073497;28;20130;-16
2022/11/30 03:35:19;;;;;;;32.22;13.48;;;2.30;78.80;;;;;;5074051;28;20392;-14
2022/11/30 03:37:46;;;;;;;24.02;12.07;;;2.30;78.90;;;;;;5073795;28;20028;-15
2022/11/30 03:40:12;;;;;;;23.17;11.75;;;2.30;79.00;;;;;;5073734;28;20024;-14
2022/11/30 03:42:38;;;;;;;32.40;16.10;;;2.30;79.00;;;;;;5073926;28;20372;-15
2022/11/30 03:45:04;;;;;;;33.22;16.75;;;2.30;79.00;;;;;;5072894;28;20052;-14
2022/11/30 03:47:30;;;;;;;34.50;16.02;;;2.40;78.90;;;;;;5073288;28;20025;-14
2022/11/30 03:49:56;;;;;;;35.13;16.67;;;2.40;78.90;;;;;;5072886;28;20036;-14
2022/11/30 03:52:22;;;;;;;34.10;16.27;;;2.40;79.00;;;;;;5073055;28;20211;-15
2022/11/30 03:54:48;;;;;;;33.55;15.85;;;2.40;79.00;;;;;;5073320;28;20050;-14
2022/11/30 03:57:14;;;;;;;27.70;14.40;;;2.40;78.90;;;;;;5073134;28;20059;-15
2022/11/30 03:59:39;;;;;;;31.33;14.15;;;2.40;78.80;;;;;;5073070;28;20020;-14
2022/11/30 04:02:05;;;;;;;32.95;15.85;;;2.40;78.90;;;;;;5073363;28;20037;-14
2022/11/30 04:04:31;;;;;;;27.85;13.55;;;2.40;78.80;;;;;;5071739;28;20445;-15
2022/11/30 04:06:57;;;;;;;30.55;14.73;;;2.40;79.00;;;;;;5072791;28;20024;-16
2022/11/30 04:09:22;;;;;;;36.72;16.67;;;2.30;79.20;;;;;;5072959;28;20057;-14
2022/11/30 04:11:48;;;;;;;32.10;15.02;;;2.30;79.20;;;;;;5072843;28;20033;-15
2022/11/30 04:14:14;;;;;;;28.08;12.88;;;2.20;79.00;;;;;;5073142;28;20062;-14
2022/11/30 04:16:40;;;;;;;31.88;15.00;;;2.20;79.00;;;;;;5072929;28;20119;-15
2022/11/30 04:19:06;;;;;;;33.35;16.52;;;2.20;79.10;;;;;;5072789;28;20111;-14
2022/11/30 04:21:32;;;;;;;31.48;15.27;;;2.20;79.10;;;;;;5072988;28;20115;-14
2022/11/30 04:23:57;;;;;;;26.65;13.23;;;2.20;79.20;;;;;;5072852;28;20109;-15
2022/11/30 04:26:23;;;;;;;31.92;14.27;;;2.10;79.20;;;;;;5072840;28;20158;-15
2022/11/30 04:28:49;;;;;;;32.53;15.60;;;2.10;79.40;;;;;;5072821;28;20038;-14
2022/11/30 04:31:15;;;;;;;31.13;14.50;;;2.10;79.30;;;;;;5072616;28;20024;-14
2022/11/30 04:33:41;;;;;;;29.15;14.38;;;2.00;79.20;;;;;;5072686;28;20024;-14
2022/11/30 04:36:18;;;;;;;29.05;14.07;;;1.90;79.20;;;;;;5072689;28;20035;-14
2022/11/30 04:38:45;;;;;;;27.85;12.93;;;1.90;79.30;;;;;;5072839;28;20067;-13
2022/11/30 04:41:11;;;;;;;20.30;10.40;;;1.90;79.40;;;;;;5072449;28;20402;-14
2022/11/30 04:43:37;;;;;;;20.75;9.90;;;1.90;79.50;;;;;;5071052;28;20556;-15
2022/11/30 04:46:04;;;;;;;20.65;10.73;;;1.90;79.30;;;;;;5072622;28;20501;-14
2022/11/30 04:48:30;;;;;;;25.33;12.07;;;1.80;79.30;;;;;;5072542;28;20032;-15
2022/11/30 04:51:04;;;;;;;36.30;15.20;;;1.80;79.40;;;;;;5072313;28;20024;-15
2022/11/30 04:53:32;;;;;;;30.77;14.25;;;1.80;79.40;;;;;;5072435;28;20025;-15
2022/11/30 04:55:58;;;;;;;29.42;14.30;;;1.70;79.40;;;;;;5072644;28;20369;-14
2022/11/30 04:58:24;;;;;;;27.92;14.38;;;1.60;79.40;;;;;;5072517;28;20024;-14
2022/11/30 05:00:54;;;;;;;31.65;15.23;;;1.60;79.60;;;;;;5074457;28;20028;-15
2022/11/30 05:03:20;;;;;;;32.40;15.05;;;1.50;79.70;;;;;;5076813;28;20028;-14
2022/11/30 05:05:46;;;;;;;33.33;15.35;;;1.40;79.70;;;;;;5076600;28;20352;-15
2022/11/30 05:08:11;;;;;;;32.78;14.95;;;1.40;79.70;;;;;;5076218;28;20063;-15
2022/11/30 05:10:37;;;;;;;27.90;12.98;;;1.40;79.80;;;;;;5076319;28;20045;-16
2022/11/30 05:13:04;;;;;;;34.00;16.60;;;1.40;79.90;;;;;;5076125;28;20103;-15
2022/11/30 05:15:31;;;;;;;33.60;17.25;;;1.30;79.90;;;;;;5076648;28;20039;-15
2022/11/30 05:17:59;;;;;;;33.67;15.60;;;1.40;80.10;;;;;;5076511;28;20524;-14
2022/11/30 05:20:25;;;;;;;34.50;16.35;;;1.30;80.20;;;;;;5076524;28;20089;-15
2022/11/30 05:22:51;;;;;;;29.42;15.45;;;1.30;80.30;;;;;;5075989;28;20480;-15
2022/11/30 05:25:16;;;;;;;31.52;15.63;;;1.20;80.30;;;;;;5075993;28;20047;-15
2022/11/30 05:27:42;;;;;;;26.15;12.68;;;1.20;80.40;;;;;;5076249;28;20108;-15
2022/11/30 05:30:10;;;;;;;20.38;10.25;;;1.20;80.50;;;;;;5076279;28;20028;-15
2022/11/30 05:32:36;;;;;;;28.38;12.93;;;1.10;80.50;;;;;;5076129;28;20033;-14
2022/11/30 05:35:01;;;;;;;31.00;15.10;;;1.10;80.50;;;;;;5075532;28;20028;-14
2022/11/30 05:37:27;;;;;;;28.80;13.63;;;1.10;80.60;;;;;;5075665;28;20029;-14
2022/11/30 05:39:53;;;;;;;26.42;13.02;;;1.10;80.50;;;;;;5076070;28;20056;-14
2022/11/30 05:42:19;;;;;;;25.42;11.63;;;1.00;80.60;;;;;;5076144;28;20101;-14
2022/11/30 05:44:46;;;;;;;30.13;13.40;;;1.00;80.60;;;;;;5075510;28;20043;-15
2022/11/30 05:47:12;;;;;;;24.73;12.20;;;1.10;80.60;;;;;;5074344;28;20024;-15
2022/11/30 05:49:38;;;;;;;29.08;14.27;;;1.10;80.60;;;;;;5075596;28;20032;-15
2022/11/30 05:52:04;;;;;;;28.55;14.32;;;1.10;80.70;;;;;;5075636;28;20035;-14
2022/11/30 05:54:30;;;;;;;29.52;14.60;;;1.10;80.60;;;;;;5075903;28;20012;-14
2022/11/30 05:56:55;;;;;;;37.28;16.50;;;1.10;80.60;;;;;;5075294;28;20385;-15
2022/11/30 05:59:22;;;;;;;41.92;19.17;;;1.20;80.60;;;;;;5075686;28;20048;-16
2022/11/30 06:01:50;;;;;;;37.78;17.30;;;1.20;80.60;;;;;;5075592;28;20055;-15
2022/11/30 06:04:16;;;;;;;36.10;18.60;;;1.20;80.80;;;;;;5075547;28;20124;-12
2022/11/30 06:06:42;;;;;;;27.15;13.00;;;1.20;80.70;;;;;;5075287;28;20099;-12
2022/11/30 06:09:07;;;;;;;29.08;14.90;;;1.30;80.90;;;;;;5075020;28;20067;-12
2022/11/30 06:11:33;;;;;;;33.08;16.80;;;1.40;80.50;;;;;;5074557;28;20391;-15
2022/11/30 06:13:59;;;;;;;30.08;15.32;;;1.40;80.80;;;;;;5075132;28;20108;-13
2022/11/30 06:16:25;;;;;;;36.67;17.63;;;1.40;81.00;;;;;;5073857;28;20028;-13
2022/11/30 06:18:51;;;;;;;30.45;15.40;;;1.40;80.80;;;;;;5074950;28;20017;-12
2022/11/30 06:21:17;;;;;;;23.35;11.55;;;1.40;80.80;;;;;;5074950;28;20151;-13
2022/11/30 06:23:43;;;;;;;25.02;12.23;;;1.40;80.60;;;;;;5075045;28;20020;-14
2022/11/30 06:26:11;;;;;;;23.67;11.80;;;1.40;80.60;;;;;;5074993;28;20376;-15
2022/11/30 06:28:38;;;;;;;32.78;15.50;;;1.40;80.70;;;;;;5074963;28;20024;-14
2022/11/30 06:31:05;;;;;;;38.60;18.98;;;1.40;80.70;;;;;;5074825;28;20041;-14
2022/11/30 06:33:32;;;;;;;38.97;17.83;;;1.50;80.70;;;;;;5075145;28;20468;-16
2022/11/30 06:35:58;;;;;;;34.88;15.13;;;1.50;80.60;;;;;;5075059;28;20024;-14
2022/11/30 06:38:24;;;;;;;26.38;12.68;;;1.50;80.60;;;;;;5073393;28;20365;-15
2022/11/30 06:40:51;;;;;;;26.98;12.93;;;1.50;80.60;;;;;;5074666;28;20480;-14
2022/11/30 06:43:18;;;;;;;32.88;14.82;;;1.50;80.30;;;;;;5074444;28;20078;-14
2022/11/30 06:45:45;;;;;;;30.55;14.80;;;1.60;80.30;;;;;;5074910;28;20036;-14
2022/11/30 06:48:12;;;;;;;26.33;13.07;;;1.60;80.50;;;;;;5074589;28;20388;-15
2022/11/30 06:50:39;;;;;;;31.67;14.30;;;1.60;80.50;;;;;;5074932;28;20032;-13
2022/11/30 06:53:04;;;;;;;19.42;10.07;;;1.60;80.30;;;;;;5072979;28;20027;-13
2022/11/30 06:55:34;;;;;;;26.85;12.40;;;1.60;80.30;;;;;;5074532;28;20016;-14
2022/11/30 06:58:07;;;;;;;49.00;17.65;;;1.60;80.20;;;;;;5074663;28;20536;-15
2022/11/30 07:00:34;;;;;;;55.65;22.17;;;1.50;80.20;;;;;;5074308;28;20017;-14
2022/11/30 07:03:01;;;;;;;45.58;22.67;;;1.60;80.30;;;;;;5072735;28;20020;-14
2022/11/30 07:05:28;;;;;;;50.80;25.05;;;1.50;80.20;;;;;;5074223;28;20059;-15
2022/11/30 07:07:54;;;;;;;44.78;20.10;;;1.50;80.80;;;;;;5074420;28;20037;-15
2022/11/30 07:10:21;;;;;;;61.72;29.25;;;1.60;80.70;;;;;;5074165;28;20435;-14
2022/11/30 07:12:48;;;;;;;38.60;19.60;;;1.50;80.40;;;;;;5073893;28;20024;-16
2022/11/30 07:15:15;;;;;;;47.63;24.88;;;1.50;80.30;;;;;;5074008;28;20080;-14
2022/11/30 07:17:41;;;;;;;59.63;28.15;;;1.60;80.20;;;;;;5073813;28;20403;-14
2022/11/30 07:20:07;;;;;;;48.95;22.52;;;1.60;80.40;;;;;;5074120;28;20078;-14
2022/11/30 07:22:33;;;;;;;69.70;32.42;;;1.50;80.50;;;;;;5073964;28;20033;-14
2022/11/30 07:27:43;;;;;;;50.45;23.75;;;1.60;80.60;;;;;;5073885;28;20039;-16
2022/11/30 07:30:10;;;;;;;54.15;25.30;;;1.70;80.50;;;;;;5073671;28;20024;-15
2022/11/30 07:32:36;;;;;;;48.13;22.55;;;1.80;80.60;;;;;;5073572;28;20473;-16
2022/11/30 07:35:02;;;;;;;46.65;21.90;;;1.80;80.70;;;;;;5073415;28;20040;-14
2022/11/30 07:37:28;;;;;;;46.53;22.33;;;1.90;80.60;;;;;;5073520;28;20035;-14
2022/11/30 07:39:54;;;;;;;43.60;20.88;;;1.90;80.60;;;;;;5073907;28;20130;-14
2022/11/30 07:42:21;;;;;;;42.75;20.42;;;2.00;80.60;;;;;;5073716;28;20024;-14
2022/11/30 07:44:48;;;;;;;52.17;22.27;;;2.00;80.50;;;;;;5072899;28;20487;-13
2022/11/30 07:47:15;;;;;;;44.33;22.10;;;2.10;80.50;;;;;;5073584;28;20028;-14
2022/11/30 07:49:41;;;;;;;43.88;21.23;;;2.20;80.40;;;;;;5073396;28;20028;-14
2022/11/30 07:52:07;;;;;;;42.47;21.75;;;2.40;80.70;;;;;;5073295;28;20023;-12
2022/11/30 07:54:33;;;;;;;41.00;20.38;;;2.50;80.40;;;;;;5073094;28;20104;-14
2022/11/30 07:56:59;;;;;;;40.83;19.65;;;2.70;80.50;;;;;;5072980;28;20112;-14
2022/11/30 07:59:25;;;;;;;43.28;20.30;;;2.80;80.30;;;;;;5073054;28;20063;-13
2022/11/30 08:01:51;;;;;;;37.50;18.80;;;2.90;80.10;;;;;;5073351;28;20027;-13
2022/11/30 08:04:17;;;;;;;39.80;18.40;;;3.10;80.10;;;;;;5073275;28;20040;-14
2022/11/30 08:06:43;;;;;;;33.30;16.02;;;3.30;80.00;;;;;;5073031;28;20052;-15
2022/11/30 08:09:11;;;;;;;39.25;19.02;;;3.50;79.80;;;;;;5073009;28;20032;-15
2022/11/30 08:11:37;;;;;;;38.33;18.95;;;3.60;79.60;;;;;;5073275;28;20025;-15
2022/11/30 08:14:04;;;;;;;43.65;18.42;;;3.80;79.40;;;;;;5072940;28;20378;-15
2022/11/30 08:16:35;;;;;;;36.97;18.00;;;3.90;79.40;;;;;;5073138;28;20020;-15
2022/11/30 08:19:01;;;;;;;33.03;16.88;;;4.10;79.00;;;;;;5072728;28;20029;-16
2022/11/30 08:21:27;;;;;;;39.80;18.17;;;4.20;79.10;;;;;;5072792;28;20055;-14
2022/11/30 08:23:55;;;;;;;34.05;17.10;;;4.40;79.40;;;;;;5072759;28;20025;-14
2022/11/30 08:26:27;;;;;;;31.13;15.63;;;4.50;78.80;;;;;;5073546;28;20399;-13
2022/11/30 08:28:54;;;;;;;35.83;19.02;;;4.70;78.20;;;;;;5072893;28;20020;-15
2022/11/30 08:31:27;;;;;;;37.55;18.70;;;4.90;78.10;;;;;;5071432;28;20115;-14
2022/11/30 08:34:01;;;;;;;35.35;16.85;;;5.10;77.60;;;;;;5073043;28;20143;-14
2022/11/30 08:36:29;;;;;;;33.90;17.35;;;5.30;77.50;;;;;;5072646;28;20082;-14
2022/11/30 08:38:57;;;;;;;33.50;15.57;;;5.40;77.20;;;;;;5072344;28;20497;-15
2022/11/30 08:41:25;;;;;;;32.22;13.75;;;5.60;76.90;;;;;;5073286;28;20025;-15
2022/11/30 08:43:52;;;;;;;31.40;15.20;;;5.90;76.80;;;;;;5072394;28;20052;-15
2022/11/30 08:46:21;;;;;;;29.17;15.05;;;6.10;76.00;;;;;;5072887;28;20132;-14
2022/11/30 08:48:49;;;;;;;29.52;14.85;;;6.30;75.90;;;;;;5072387;28;20115;-13
2022/11/30 08:51:17;;;;;;;30.48;13.88;;;6.50;75.50;;;;;;5072535;28;20025;-14
2022/11/30 08:53:44;;;;;;;30.30;14.60;;;6.80;75.30;;;;;;5072558;28;20036;-14
2022/11/30 08:56:18;;;;;;;27.83;13.65;;;6.90;74.90;;;;;;5072674;28;20062;-14
2022/11/30 08:58:46;;;;;;;31.73;15.00;;;7.00;74.10;;;;;;5072638;28;20031;-13
2022/11/30 09:01:15;;;;;;;30.67;14.82;;;7.20;74.20;;;;;;5072467;28;20491;-14
2022/11/30 09:03:42;;;;;;;27.25;14.98;;;7.30;74.10;;;;;;5072669;28;20361;-13
2022/11/30 09:06:14;;;;;;;29.95;14.23;;;7.40;73.80;;;;;;5072377;28;20373;-14
2022/11/30 09:08:42;;;;;;;27.73;14.40;;;7.60;73.90;;;;;;5072614;28;20024;-15
2022/11/30 09:11:10;;;;;;;26.45;13.15;;;7.80;73.30;;;;;;5071295;28;20032;-15
2022/11/30 09:13:36;;;;;;;28.00;13.15;;;8.00;73.00;;;;;;5072229;28;20028;-14
2022/11/30 09:16:03;;;;;;;25.42;12.98;;;8.30;73.00;;;;;;5071470;28;20111;-15
2022/11/30 09:18:29;;;;;;;25.45;13.00;;;8.40;72.00;;;;;;5072614;28;20033;-13
2022/11/30 09:21:13;;;;;;;25.33;13.00;;;8.70;71.60;;;;;;5072084;28;20033;-13
2022/11/30 09:23:40;;;;;;;23.15;13.00;;;8.90;71.30;;;;;;5072126;28;20025;-14
2022/11/30 09:26:10;;;;;;;28.13;14.10;;;9.10;70.40;;;;;;5072168;28;20430;-15
2022/11/30 09:28:36;;;;;;;28.02;14.48;;;9.40;68.10;;;;;;5072184;28;20502;-15
2022/11/30 09:31:05;;;;;;;24.23;12.70;;;9.70;69.60;;;;;;5072122;28;20033;-13
2022/11/30 09:33:32;;;;;;;20.63;10.30;;;9.80;65.40;;;;;;5072380;28;20561;-14
2022/11/30 09:36:00;;;;;;;22.50;12.77;;;9.90;66.20;;;;;;5072456;28;20024;-14
2022/11/30 09:38:26;;;;;;;20.65;11.80;;;9.90;63.70;;;;;;5071996;28;20070;-14
2022/11/30 09:40:58;;;;;;;23.55;12.10;;;9.90;62.90;;;;;;5072539;28;20145;-14
2022/11/30 09:43:34;;;;;;;21.05;10.60;;;9.90;63.90;;;;;;5071772;28;20052;-14
2022/11/30 09:46:04;;;;;;;19.50;10.07;;;10.10;66.00;;;;;;5072296;28;20044;-13
2022/11/30 09:48:36;;;;;;;19.30;10.27;;;10.30;65.30;;;;;;5075318;28;20082;-14
2022/11/30 09:51:10;;;;;;;22.77;11.60;;;10.30;60.80;;;;;;5075546;28;20476;-12
2022/11/30 09:53:44;;;;;;;20.70;11.90;;;10.20;59.10;;;;;;5075515;28;20090;-13
2022/11/30 09:56:23;;;;;;;22.15;12.20;;;10.20;61.70;;;;;;5075558;28;20032;-13
2022/11/30 09:59:14;;;;;;;19.70;10.27;;;10.20;62.50;;;;;;5075497;28;20024;-13
2022/11/30 10:01:42;;;;;;;18.45;10.15;;;10.20;63.40;;;;;;5064743;28;20115;-15
2022/11/30 10:04:24;;;;;;;16.55;9.25;;;10.10;60.00;;;;;;5076052;28;20052;-14
2022/11/30 10:07:15;;;;;;;15.55;8.43;;;10.20;60.30;;;;;;5075179;28;20074;-15
2022/11/30 10:09:47;;;;;;;18.80;9.60;;;10.30;61.20;;;;;;5075170;28;20422;-14
2022/11/30 10:12:25;;;;;;;20.20;10.40;;;10.50;61.20;;;;;;5075541;28;20068;-14
2022/11/30 10:15:21;;;;;;;17.50;9.82;;;10.60;59.30;;;;;;5075100;28;20032;-14
2022/11/30 10:17:55;;;;;;;15.75;9.07;;;10.80;58.30;;;;;;5075697;28;20105;-16
2022/11/30 10:20:32;;;;;;;17.70;9.20;;;10.90;60.60;;;;;;5075135;28;20024;-15
2022/11/30 10:23:15;;;;;;;16.30;8.75;;;11.20;58.70;;;;;;5074788;28;20063;-14
2022/11/30 10:25:56;;;;;;;18.38;9.07;;;11.40;50.30;;;;;;5075326;28;20029;-14
2022/11/30 10:28:28;;;;;;;14.23;7.72;;;11.60;55.00;;;;;;5075218;28;20116;-15
2022/11/30 10:30:54;;;;;;;17.13;8.48;;;11.80;57.50;;;;;;5074763;28;20049;-14
2022/11/30 10:33:30;;;;;;;16.95;9.98;;;12.00;57.50;;;;;;5074888;28;20479;-15
2022/11/30 10:36:07;;;;;;;14.70;8.68;;;12.20;56.30;;;;;;5074818;28;20035;-15
2022/11/30 10:38:38;;;;;;;19.15;9.82;;;12.30;56.00;;;;;;5074666;28;20495;-14
2022/11/30 10:41:17;;;;;;;16.48;8.52;;;12.50;54.70;;;;;;5074593;28;20028;-14
2022/11/30 10:44:00;;;;;;;17.02;8.55;;;12.80;54.70;;;;;;5074677;28;20400;-14
2022/11/30 10:46:51;;;;;;;18.75;12.20;;;12.90;54.80;;;;;;5074708;28;20460;-13
2022/11/30 10:49:19;;;;;;;16.08;8.60;;;12.90;53.40;;;;;;5046365;28;20111;-14
2022/11/30 10:51:51;;;;;;;14.70;8.27;;;12.90;53.90;;;;;;5074658;28;20052;-14
2022/11/30 10:54:20;;;;;;;14.73;7.88;;;12.90;51.60;;;;;;5074598;28;20040;-14
2022/11/30 10:56:47;;;;;;;15.60;8.57;;;13.00;52.80;;;;;;5074313;28;20356;-15
2022/11/30 10:59:33;;;;;;;15.45;8.05;;;13.20;52.10;;;;;;5072800;28;20400;-14
2022/11/30 11:02:00;;;;;;;25.55;13.95;;;13.40;52.70;;;;;;5074390;28;20535;-16
2022/11/30 11:04:29;;;;;;;15.82;9.38;;;13.60;50.00;;;;;;5074510;28;20097;-14
2022/11/30 11:07:09;;;;;;;17.27;9.25;;;13.60;48.30;;;;;;5074302;28;20040;-15
2022/11/30 11:09:36;;;;;;;15.25;8.75;;;13.60;49.90;;;;;;5074455;28;20486;-14
2022/11/30 11:12:24;;;;;;;14.50;8.05;;;13.70;45.10;;;;;;5074105;28;20075;-14
2022/11/30 11:15:16;;;;;;;16.30;8.65;;;13.90;47.20;;;;;;5073874;28;20020;-15
2022/11/30 11:17:42;;;;;;;15.40;8.15;;;13.90;48.40;;;;;;5074137;28;20472;-14
2022/11/30 11:20:28;;;;;;;15.02;7.97;;;13.90;46.90;;;;;;5073986;28;20021;-15
2022/11/30 11:22:54;;;;;;;14.63;8.13;;;13.70;48.20;;;;;;5072314;28;20029;-15
2022/11/30 11:25:24;;;;;;;13.55;7.43;;;13.70;48.90;;;;;;5074442;28;20025;-15
2022/11/30 11:27:57;;;;;;;14.60;7.50;;;13.70;48.10;;;;;;5073913;28;20526;-14
2022/11/30 11:30:23;;;;;;;;;;;13.60;48.70;;;;;;5074534;28;20055;-15
2022/11/30 11:32:59;;;;;;;13.68;7.30;;;13.70;45.90;;;;;;5074052;28;19962;-16
2022/11/30 11:35:36;;;;;;;14.35;7.45;;;14.10;48.90;;;;;;5073645;28;20059;-14
2022/11/30 11:38:16;;;;;;;16.80;9.65;;;14.40;48.10;;;;;;5073625;28;20034;-16
2022/11/30 11:40:55;;;;;;;12.30;7.10;;;14.30;45.40;;;;;;5072321;28;20537;-15
2022/11/30 11:43:24;;;;;;;12.93;7.18;;;14.20;46.20;;;;;;5073658;28;20083;-14
2022/11/30 11:45:54;;;;;;;12.27;7.00;;;14.10;46.20;;;;;;5073951;28;20017;-14
2022/11/30 11:48:47;;;;;;;12.23;6.78;;;14.20;48.20;;;;;;5073439;28;20369;-15
2022/11/30 11:51:13;;;;;;;13.02;6.93;;;14.00;43.00;;;;;;5074029;28;20074;-15
2022/11/30 11:54:05;;;;;;;18.95;9.35;;;14.00;47.20;;;;;;5073242;28;20036;-14
2022/11/30 11:56:36;;;;;;;12.68;7.30;;;13.90;46.70;;;;;;5054090;28;20500;-14
2022/11/30 11:59:27;;;;;;;13.57;7.35;;;13.80;47.40;;;;;;5073079;28;20082;-15
2022/11/30 12:02:15;;;;;;;12.43;6.95;;;13.50;45.80;;;;;;5073883;28;20472;-16
2022/11/30 12:04:45;;;;;;;12.43;7.55;;;13.50;47.40;;;;;;5073397;28;20031;-14
2022/11/30 12:07:48;;;;;;;13.68;7.50;;;13.40;45.50;;;;;;5073817;28;20032;-16
2022/11/30 12:10:45;;;;;;;13.30;7.03;;;13.30;43.50;;;;;;5072851;28;20056;-15
2022/11/30 12:13:21;;;;;;;12.32;6.82;;;13.30;44.70;;;;;;5073619;28;20073;-14
2022/11/30 12:15:56;;;;;;;12.98;7.10;;;13.40;46.60;;;;;;5073137;28;20112;-15
2022/11/30 12:18:44;;;;;;;11.65;5.65;;;13.40;45.10;;;;;;5073315;28;20101;-15
2022/11/30 12:21:20;;;;;;;12.50;6.13;;;13.30;44.80;;;;;;5072916;28;20024;-15
2022/11/30 12:24:07;;;;;;;11.55;6.40;;;13.10;45.00;;;;;;5072894;28;20023;-14
2022/11/30 12:27:03;;;;;;;11.07;5.65;;;12.90;44.10;;;;;;5072898;28;20059;-15
2022/11/30 12:29:46;;;;;;;12.35;5.75;;;12.90;45.20;;;;;;5072785;28;20557;-15
2022/11/30 12:32:12;;;;;;;9.05;5.50;;;12.80;44.70;;;;;;5073150;28;20476;-14
2022/11/30 12:34:56;;;;;;;9.73;5.53;;;12.80;45.30;;;;;;5072732;28;20032;-15
2022/11/30 12:37:41;;;;;;;10.57;5.70;;;12.70;45.30;;;;;;5072993;28;20072;-15
2022/11/30 12:40:10;;;;;;;11.45;5.88;;;12.70;46.30;;;;;;5073891;28;20028;-14
2022/11/30 12:43:04;;;;;;;9.63;5.28;;;12.70;46.90;;;;;;5072658;28;20471;-15
2022/11/30 12:45:46;;;;;;;12.18;5.32;;;12.70;46.80;;;;;;5071289;28;20033;-14
2022/11/30 12:48:31;;;;;;;11.93;6.13;;;12.70;46.80;;;;;;5072968;28;20021;-14
2022/11/30 12:51:18;;;;;;;9.88;5.78;;;12.80;45.20;;;;;;5072431;28;20473;-15
2022/11/30 12:54:11;;;;;;;11.38;6.15;;;12.90;46.50;;;;;;5072390;28;20056;-14
2022/11/30 12:57:19;;;;;;;10.32;5.32;;;13.00;45.60;;;;;;5072392;28;20028;-14